sensor_id;sensor_type;location;lat;lon;timestamp;pressure;altitude;pressure_sealevel;temperature
33267;BMP180;19638;49.080;11.896;2022-09-04T00:01:43;96389.00;;;14.80
33267;BMP180;19638;49.080;11.896;2022-09-04T00:05:50;96379.00;;;14.70
33267;BMP180;19638;49.080;11.896;2022-09-04T00:10:28;96382.00;;;14.60
33267;BMP180;19638;49.080;11.896;2022-09-04T00:14:39;96380.00;;;14.50
33267;BMP180;19638;49.080;11.896;2022-09-04T00:19:08;96390.00;;;14.50
33267;BMP180;19638;49.080;11.896;2022-09-04T00:23:18;96389.00;;;14.50
33267;BMP180;19638;49.080;11.896;2022-09-04T00:27:28;96390.00;;;14.50
33267;BMP180;19638;49.080;11.896;2022-09-04T00:32:03;96389.00;;;14.50
33267;BMP180;19638;49.080;11.896;2022-09-04T00:36:09;96389.00;;;14.50
33267;BMP180;19638;49.080;11.896;2022-09-04T00:40:21;96396.00;;;14.50
33267;BMP180;19638;49.080;11.896;2022-09-04T00:44:44;96394.00;;;14.50
33267;BMP180;19638;49.080;11.896;2022-09-04T00:49:15;96401.00;;;14.50
33267;BMP180;19638;49.080;11.896;2022-09-04T00:53:50;96401.00;;;14.60
33267;BMP180;19638;49.080;11.896;2022-09-04T00:58:14;96405.00;;;14.70
33267;BMP180;19638;49.080;11.896;2022-09-04T01:02:31;96410.00;;;14.80
33267;BMP180;19638;49.080;11.896;2022-09-04T01:07:07;96406.00;;;14.80
33267;BMP180;19638;49.080;11.896;2022-09-04T01:11:26;96405.00;;;14.90
33267;BMP180;19638;49.080;11.896;2022-09-04T01:15:39;96403.00;;;14.80
33267;BMP180;19638;49.080;11.896;2022-09-04T01:19:52;96411.00;;;14.80
33267;BMP180;19638;49.080;11.896;2022-09-04T01:28:55;96421.00;;;14.80
33267;BMP180;19638;49.080;11.896;2022-09-04T01:33:23;96414.00;;;14.70
33267;BMP180;19638;49.080;11.896;2022-09-04T01:37:43;96424.00;;;14.60
33267;BMP180;19638;49.080;11.896;2022-09-04T01:42:11;96428.00;;;14.60
33267;BMP180;19638;49.080;11.896;2022-09-04T01:46:38;96428.00;;;14.50
33267;BMP180;19638;49.080;11.896;2022-09-04T01:50:46;96430.00;;;14.40
33267;BMP180;19638;49.080;11.896;2022-09-04T01:55:19;96438.00;;;14.30
33267;BMP180;19638;49.080;11.896;2022-09-04T02:04:05;96445.00;;;14.30
33267;BMP180;19638;49.080;11.896;2022-09-04T02:08:25;96449.00;;;14.30
33267;BMP180;19638;49.080;11.896;2022-09-04T02:12:33;96449.00;;;14.30
33267;BMP180;19638;49.080;11.896;2022-09-04T02:16:45;96454.00;;;14.40
33267;BMP180;19638;49.080;11.896;2022-09-04T02:21:04;96449.00;;;14.40
33267;BMP180;19638;49.080;11.896;2022-09-04T02:25:33;96446.00;;;14.50
33267;BMP180;19638;49.080;11.896;2022-09-04T02:29:42;96451.00;;;14.50
33267;BMP180;19638;49.080;11.896;2022-09-04T02:34:15;96450.00;;;14.60
33267;BMP180;19638;49.080;11.896;2022-09-04T02:38:28;96454.00;;;14.40
33267;BMP180;19638;49.080;11.896;2022-09-04T02:43:03;96453.00;;;14.40
33267;BMP180;19638;49.080;11.896;2022-09-04T02:47:17;96452.00;;;14.50
33267;BMP180;19638;49.080;11.896;2022-09-04T02:51:49;96458.00;;;14.40
33267;BMP180;19638;49.080;11.896;2022-09-04T02:56:10;96450.00;;;14.50
33267;BMP180;19638;49.080;11.896;2022-09-04T03:00:40;96452.00;;;14.50
33267;BMP180;19638;49.080;11.896;2022-09-04T03:05:10;96452.00;;;14.50
33267;BMP180;19638;49.080;11.896;2022-09-04T03:09:45;96448.00;;;14.40
33267;BMP180;19638;49.080;11.896;2022-09-04T03:13:57;96452.00;;;14.40
33267;BMP180;19638;49.080;11.896;2022-09-04T03:18:25;96446.00;;;14.40
33267;BMP180;19638;49.080;11.896;2022-09-04T03:22:35;96440.00;;;14.30
33267;BMP180;19638;49.080;11.896;2022-09-04T03:27:09;96445.00;;;14.30
33267;BMP180;19638;49.080;11.896;2022-09-04T03:31:47;96457.00;;;14.30
33267;BMP180;19638;49.080;11.896;2022-09-04T03:35:58;96461.00;;;14.30
33267;BMP180;19638;49.080;11.896;2022-09-04T03:44:40;96456.00;;;14.30
33267;BMP180;19638;49.080;11.896;2022-09-04T03:49:05;96454.00;;;14.20
33267;BMP180;19638;49.080;11.896;2022-09-04T03:53:17;96462.00;;;14.20
33267;BMP180;19638;49.080;11.896;2022-09-04T03:57:48;96465.00;;;14.20
33267;BMP180;19638;49.080;11.896;2022-09-04T04:07:14;96462.00;;;14.30
33267;BMP180;19638;49.080;11.896;2022-09-04T04:11:48;96467.00;;;14.40
33267;BMP180;19638;49.080;11.896;2022-09-04T04:16:23;96475.00;;;14.40
33267;BMP180;19638;49.080;11.896;2022-09-04T04:20:58;96469.00;;;14.40
33267;BMP180;19638;49.080;11.896;2022-09-04T04:25:36;96470.00;;;14.40
33267;BMP180;19638;49.080;11.896;2022-09-04T04:30:07;96472.00;;;14.30
33267;BMP180;19638;49.080;11.896;2022-09-04T04:34:48;96480.00;;;14.30
33267;BMP180;19638;49.080;11.896;2022-09-04T04:39:23;96485.00;;;14.30
33267;BMP180;19638;49.080;11.896;2022-09-04T04:53:03;96501.00;;;14.10
33267;BMP180;19638;49.080;11.896;2022-09-04T04:57:33;96501.00;;;14.10
33267;BMP180;19638;49.080;11.896;2022-09-04T05:02:08;96514.00;;;14.10
33267;BMP180;19638;49.080;11.896;2022-09-04T05:06:47;96525.00;;;14.10
33267;BMP180;19638;49.080;11.896;2022-09-04T05:11:25;96537.00;;;14.20
33267;BMP180;19638;49.080;11.896;2022-09-04T05:15:59;96540.00;;;14.40
33267;BMP180;19638;49.080;11.896;2022-09-04T05:20:36;96551.00;;;14.60
33267;BMP180;19638;49.080;11.896;2022-09-04T05:24:54;96556.00;;;14.90
33267;BMP180;19638;49.080;11.896;2022-09-04T05:29:27;96561.00;;;15.10
33267;BMP180;19638;49.080;11.896;2022-09-04T05:33:43;96565.00;;;15.40
33267;BMP180;19638;49.080;11.896;2022-09-04T05:37:52;96565.00;;;15.70
33267;BMP180;19638;49.080;11.896;2022-09-04T05:47:07;96591.00;;;16.10
33267;BMP180;19638;49.080;11.896;2022-09-04T05:51:45;96591.00;;;16.30
33267;BMP180;19638;49.080;11.896;2022-09-04T05:56:19;96596.00;;;16.50
33267;BMP180;19638;49.080;11.896;2022-09-04T06:00:55;96604.00;;;16.70
33267;BMP180;19638;49.080;11.896;2022-09-04T06:05:30;96616.00;;;17.00
33267;BMP180;19638;49.080;11.896;2022-09-04T06:10:04;96613.00;;;17.10
33267;BMP180;19638;49.080;11.896;2022-09-04T06:14:50;96620.00;;;17.20
33267;BMP180;19638;49.080;11.896;2022-09-04T06:19:30;96624.00;;;17.30
33267;BMP180;19638;49.080;11.896;2022-09-04T06:29:10;96631.00;;;17.70
33267;BMP180;19638;49.080;11.896;2022-09-04T06:33:38;96633.00;;;17.90
33267;BMP180;19638;49.080;11.896;2022-09-04T06:38:12;96636.00;;;18.10
33267;BMP180;19638;49.080;11.896;2022-09-04T06:42:49;96637.00;;;18.40
33267;BMP180;19638;49.080;11.896;2022-09-04T06:47:26;96645.00;;;18.60
33267;BMP180;19638;49.080;11.896;2022-09-04T06:52:02;96645.00;;;18.80
33267;BMP180;19638;49.080;11.896;2022-09-04T06:56:40;96644.00;;;19.10
33267;BMP180;19638;49.080;11.896;2022-09-04T07:01:12;96650.00;;;19.30
33267;BMP180;19638;49.080;11.896;2022-09-04T07:05:41;96652.00;;;19.40
33267;BMP180;19638;49.080;11.896;2022-09-04T07:10:09;96659.00;;;19.60
33267;BMP180;19638;49.080;11.896;2022-09-04T07:14:49;96666.00;;;19.90
33267;BMP180;19638;49.080;11.896;2022-09-04T07:23:46;96691.00;;;20.70
33267;BMP180;19638;49.080;11.896;2022-09-04T07:28:23;96689.00;;;20.70
33267;BMP180;19638;49.080;11.896;2022-09-04T07:32:50;96689.00;;;20.80
33267;BMP180;19638;49.080;11.896;2022-09-04T07:36:59;96697.00;;;21.10
33267;BMP180;19638;49.080;11.896;2022-09-04T07:41:33;96694.00;;;21.40
33267;BMP180;19638;49.080;11.896;2022-09-04T07:46:09;96699.00;;;21.50
33267;BMP180;19638;49.080;11.896;2022-09-04T07:55:03;96705.00;;;21.80
33267;BMP180;19638;49.080;11.896;2022-09-04T08:04:28;96719.00;;;22.10
33267;BMP180;19638;49.080;11.896;2022-09-04T08:09:06;96731.00;;;22.20
33267;BMP180;19638;49.080;11.896;2022-09-04T08:13:42;96727.00;;;22.40
33267;BMP180;19638;49.080;11.896;2022-09-04T08:18:14;96727.00;;;22.50
33267;BMP180;19638;49.080;11.896;2022-09-04T08:22:29;96725.00;;;22.40
33267;BMP180;19638;49.080;11.896;2022-09-04T08:26:59;96741.00;;;22.40
33267;BMP180;19638;49.080;11.896;2022-09-04T08:31:31;96744.00;;;22.60
33267;BMP180;19638;49.080;11.896;2022-09-04T08:35:44;96748.00;;;23.30
33267;BMP180;19638;49.080;11.896;2022-09-04T08:40:22;96752.00;;;23.60
33267;BMP180;19638;49.080;11.896;2022-09-04T08:49:50;96756.00;;;24.70
33267;BMP180;19638;49.080;11.896;2022-09-04T09:08:49;96763.00;;;25.30
33267;BMP180;19638;49.080;11.896;2022-09-04T09:18:15;96775.00;;;25.80
33267;BMP180;19638;49.080;11.896;2022-09-04T09:22:36;96769.00;;;26.40
33267;BMP180;19638;49.080;11.896;2022-09-04T09:27:04;96772.00;;;27.20
33267;BMP180;19638;49.080;11.896;2022-09-04T09:36:19;96770.00;;;27.90
33267;BMP180;19638;49.080;11.896;2022-09-04T09:41:00;96766.00;;;26.80
33267;BMP180;19638;49.080;11.896;2022-09-04T09:45:41;96769.00;;;27.50
33267;BMP180;19638;49.080;11.896;2022-09-04T09:50:11;96767.00;;;28.10
33267;BMP180;19638;49.080;11.896;2022-09-04T09:54:56;96771.00;;;28.30
33267;BMP180;19638;49.080;11.896;2022-09-04T10:04:14;96763.00;;;28.50
33267;BMP180;19638;49.080;11.896;2022-09-04T10:08:44;96768.00;;;28.80
33267;BMP180;19638;49.080;11.896;2022-09-04T10:13:24;96759.00;;;28.80
33267;BMP180;19638;49.080;11.896;2022-09-04T10:33:24;96755.00;;;30.40
33267;BMP180;19638;49.080;11.896;2022-09-04T10:38:00;96753.00;;;30.90
33267;BMP180;19638;49.080;11.896;2022-09-04T10:42:34;96753.00;;;31.00
33267;BMP180;19638;49.080;11.896;2022-09-04T10:47:01;96751.00;;;31.30
33267;BMP180;19638;49.080;11.896;2022-09-04T10:56:07;96750.00;;;31.20
33267;BMP180;19638;49.080;11.896;2022-09-04T11:00:38;96747.00;;;31.70
33267;BMP180;19638;49.080;11.896;2022-09-04T11:10:10;96750.00;;;32.40
33267;BMP180;19638;49.080;11.896;2022-09-04T11:14:45;96748.00;;;31.80
33267;BMP180;19638;49.080;11.896;2022-09-04T11:24:48;96743.00;;;30.90
33267;BMP180;19638;49.080;11.896;2022-09-04T11:29:36;96754.00;;;31.00
33267;BMP180;19638;49.080;11.896;2022-09-04T11:38:48;96760.00;;;30.60
33267;BMP180;19638;49.080;11.896;2022-09-04T11:43:24;96748.00;;;30.40
33267;BMP180;19638;49.080;11.896;2022-09-04T11:52:52;96760.00;;;30.00
33267;BMP180;19638;49.080;11.896;2022-09-04T11:57:09;96757.00;;;29.90
33267;BMP180;19638;49.080;11.896;2022-09-04T12:01:38;96749.00;;;30.10
33267;BMP180;19638;49.080;11.896;2022-09-04T12:06:06;96745.00;;;30.10
33267;BMP180;19638;49.080;11.896;2022-09-04T12:10:35;96751.00;;;30.00
33267;BMP180;19638;49.080;11.896;2022-09-04T12:15:02;96754.00;;;29.60
33267;BMP180;19638;49.080;11.896;2022-09-04T12:29:07;96748.00;;;29.40
33267;BMP180;19638;49.080;11.896;2022-09-04T12:33:37;96748.00;;;29.30
33267;BMP180;19638;49.080;11.896;2022-09-04T12:42:17;96757.00;;;29.30
33267;BMP180;19638;49.080;11.896;2022-09-04T12:46:45;96760.00;;;29.20
33267;BMP180;19638;49.080;11.896;2022-09-04T12:51:08;96760.00;;;28.90
33267;BMP180;19638;49.080;11.896;2022-09-04T12:55:40;96759.00;;;28.90
33267;BMP180;19638;49.080;11.896;2022-09-04T12:59:58;96770.00;;;28.70
33267;BMP180;19638;49.080;11.896;2022-09-04T13:04:30;96775.00;;;28.60
33267;BMP180;19638;49.080;11.896;2022-09-04T13:09:03;96777.00;;;28.30
33267;BMP180;19638;49.080;11.896;2022-09-04T13:13:37;96778.00;;;28.10
33267;BMP180;19638;49.080;11.896;2022-09-04T13:18:11;96784.00;;;27.70
33267;BMP180;19638;49.080;11.896;2022-09-04T13:22:27;96794.00;;;26.60
33267;BMP180;19638;49.080;11.896;2022-09-04T13:26:56;96784.00;;;25.60
33267;BMP180;19638;49.080;11.896;2022-09-04T13:31:23;96793.00;;;24.70
33267;BMP180;19638;49.080;11.896;2022-09-04T13:36:01;96792.00;;;23.70
33267;BMP180;19638;49.080;11.896;2022-09-04T13:40:22;96788.00;;;23.20
33267;BMP180;19638;49.080;11.896;2022-09-04T13:44:55;96800.00;;;22.70
33267;BMP180;19638;49.080;11.896;2022-09-04T13:49:07;96792.00;;;22.40
33267;BMP180;19638;49.080;11.896;2022-09-04T13:53:38;96791.00;;;22.40
33267;BMP180;19638;49.080;11.896;2022-09-04T13:58:15;96788.00;;;22.40
33267;BMP180;19638;49.080;11.896;2022-09-04T14:06:55;96776.00;;;22.50
33267;BMP180;19638;49.080;11.896;2022-09-04T14:11:32;96784.00;;;22.60
33267;BMP180;19638;49.080;11.896;2022-09-04T14:16:05;96780.00;;;22.60
33267;BMP180;19638;49.080;11.896;2022-09-04T14:20:27;96777.00;;;22.70
33267;BMP180;19638;49.080;11.896;2022-09-04T14:25:01;96774.00;;;22.70
33267;BMP180;19638;49.080;11.896;2022-09-04T14:29:35;96777.00;;;22.90
33267;BMP180;19638;49.080;11.896;2022-09-04T14:34:04;96787.00;;;23.20
33267;BMP180;19638;49.080;11.896;2022-09-04T14:38:43;96786.00;;;23.10
33267;BMP180;19638;49.080;11.896;2022-09-04T14:43:17;96783.00;;;23.10
33267;BMP180;19638;49.080;11.896;2022-09-04T14:52:31;96783.00;;;23.50
33267;BMP180;19638;49.080;11.896;2022-09-04T14:57:10;96779.00;;;23.90
33267;BMP180;19638;49.080;11.896;2022-09-04T15:06:31;96777.00;;;24.90
33267;BMP180;19638;49.080;11.896;2022-09-04T15:11:07;96776.00;;;25.50
33267;BMP180;19638;49.080;11.896;2022-09-04T15:15:42;96774.00;;;26.30
33267;BMP180;19638;49.080;11.896;2022-09-04T15:20:19;96779.00;;;27.20
33267;BMP180;19638;49.080;11.896;2022-09-04T15:24:55;96785.00;;;27.70
33267;BMP180;19638;49.080;11.896;2022-09-04T15:29:35;96781.00;;;27.90
33267;BMP180;19638;49.080;11.896;2022-09-04T15:34:08;96776.00;;;27.90
33267;BMP180;19638;49.080;11.896;2022-09-04T15:38:48;96779.00;;;27.90
33267;BMP180;19638;49.080;11.896;2022-09-04T15:52:17;96792.00;;;28.60
33267;BMP180;19638;49.080;11.896;2022-09-04T15:56:40;96788.00;;;28.80
33267;BMP180;19638;49.080;11.896;2022-09-04T16:01:09;96786.00;;;29.20
33267;BMP180;19638;49.080;11.896;2022-09-04T16:05:38;96787.00;;;29.60
33267;BMP180;19638;49.080;11.896;2022-09-04T16:10:13;96791.00;;;29.90
33267;BMP180;19638;49.080;11.896;2022-09-04T16:14:46;96787.00;;;30.00
33267;BMP180;19638;49.080;11.896;2022-09-04T16:19:01;96787.00;;;30.00
33267;BMP180;19638;49.080;11.896;2022-09-04T16:23:28;96794.00;;;30.10
33267;BMP180;19638;49.080;11.896;2022-09-04T16:27:39;96784.00;;;30.50
33267;BMP180;19638;49.080;11.896;2022-09-04T16:32:09;96783.00;;;30.70
33267;BMP180;19638;49.080;11.896;2022-09-04T16:41:22;96785.00;;;30.40
33267;BMP180;19638;49.080;11.896;2022-09-04T16:46:03;96786.00;;;30.10
33267;BMP180;19638;49.080;11.896;2022-09-04T16:50:33;96780.00;;;29.40
33267;BMP180;19638;49.080;11.896;2022-09-04T16:55:08;96789.00;;;28.40
33267;BMP180;19638;49.080;11.896;2022-09-04T16:59:46;96793.00;;;27.70
33267;BMP180;19638;49.080;11.896;2022-09-04T17:04:27;96787.00;;;27.00
33267;BMP180;19638;49.080;11.896;2022-09-04T17:08:58;96789.00;;;26.30
33267;BMP180;19638;49.080;11.896;2022-09-04T17:13:35;96793.00;;;25.80
33267;BMP180;19638;49.080;11.896;2022-09-04T17:18:09;96803.00;;;25.20
33267;BMP180;19638;49.080;11.896;2022-09-04T17:22:48;96798.00;;;24.70
33267;BMP180;19638;49.080;11.896;2022-09-04T17:28:02;96797.00;;;24.20
33267;BMP180;19638;49.080;11.896;2022-09-04T17:33:06;96800.00;;;23.80
33267;BMP180;19638;49.080;11.896;2022-09-04T17:37:46;96798.00;;;23.30
33267;BMP180;19638;49.080;11.896;2022-09-04T17:42:21;96800.00;;;22.70
33267;BMP180;19638;49.080;11.896;2022-09-04T17:46:53;96805.00;;;22.30
33267;BMP180;19638;49.080;11.896;2022-09-04T17:51:28;96804.00;;;21.90
33267;BMP180;19638;49.080;11.896;2022-09-04T17:56:07;96812.00;;;21.50
33267;BMP180;19638;49.080;11.896;2022-09-04T18:05:16;96815.00;;;20.70
33267;BMP180;19638;49.080;11.896;2022-09-04T18:09:43;96824.00;;;20.50
33267;BMP180;19638;49.080;11.896;2022-09-04T18:14:17;96821.00;;;20.30
33267;BMP180;19638;49.080;11.896;2022-09-04T18:18:53;96830.00;;;20.10
33267;BMP180;19638;49.080;11.896;2022-09-04T18:28:04;96851.00;;;19.80
33267;BMP180;19638;49.080;11.896;2022-09-04T18:32:42;96851.00;;;19.80
33267;BMP180;19638;49.080;11.896;2022-09-04T18:37:22;96843.00;;;19.60
33267;BMP180;19638;49.080;11.896;2022-09-04T18:42:27;96848.00;;;19.30
33267;BMP180;19638;49.080;11.896;2022-09-04T18:47:35;96842.00;;;19.10
33267;BMP180;19638;49.080;11.896;2022-09-04T18:52:43;96849.00;;;19.00
33267;BMP180;19638;49.080;11.896;2022-09-04T18:57:19;96855.00;;;19.00
33267;BMP180;19638;49.080;11.896;2022-09-04T19:01:50;96859.00;;;18.90
33267;BMP180;19638;49.080;11.896;2022-09-04T19:06:01;96859.00;;;19.00
33267;BMP180;19638;49.080;11.896;2022-09-04T19:10:37;96855.00;;;18.90
33267;BMP180;19638;49.080;11.896;2022-09-04T19:15:15;96865.00;;;18.80
33267;BMP180;19638;49.080;11.896;2022-09-04T19:19:47;96862.00;;;18.70
33267;BMP180;19638;49.080;11.896;2022-09-04T19:24:24;96864.00;;;18.60
33267;BMP180;19638;49.080;11.896;2022-09-04T19:29:03;96856.00;;;18.50
33267;BMP180;19638;49.080;11.896;2022-09-04T19:33:31;96858.00;;;18.40
33267;BMP180;19638;49.080;11.896;2022-09-04T19:38:08;96861.00;;;18.30
33267;BMP180;19638;49.080;11.896;2022-09-04T19:42:49;96861.00;;;18.10
33267;BMP180;19638;49.080;11.896;2022-09-04T19:52:29;96862.00;;;17.90
33267;BMP180;19638;49.080;11.896;2022-09-04T19:57:15;96863.00;;;17.90
33267;BMP180;19638;49.080;11.896;2022-09-04T20:01:41;96863.00;;;17.80
33267;BMP180;19638;49.080;11.896;2022-09-04T20:05:53;96860.00;;;17.60
33267;BMP180;19638;49.080;11.896;2022-09-04T20:10:30;96861.00;;;17.50
33267;BMP180;19638;49.080;11.896;2022-09-04T20:14:39;96862.00;;;17.50
33267;BMP180;19638;49.080;11.896;2022-09-04T20:18:47;96856.00;;;17.40
33267;BMP180;19638;49.080;11.896;2022-09-04T20:23:19;96862.00;;;17.30
33267;BMP180;19638;49.080;11.896;2022-09-04T20:27:41;96866.00;;;17.20
33267;BMP180;19638;49.080;11.896;2022-09-04T20:31:51;96860.00;;;17.20
33267;BMP180;19638;49.080;11.896;2022-09-04T20:35:59;96850.00;;;17.00
33267;BMP180;19638;49.080;11.896;2022-09-04T20:40:12;96853.00;;;16.90
33267;BMP180;19638;49.080;11.896;2022-09-04T20:44:43;96857.00;;;16.80
33267;BMP180;19638;49.080;11.896;2022-09-04T20:49:18;96854.00;;;16.80
33267;BMP180;19638;49.080;11.896;2022-09-04T20:54:01;96857.00;;;16.70
33267;BMP180;19638;49.080;11.896;2022-09-04T20:58:28;96856.00;;;16.80
33267;BMP180;19638;49.080;11.896;2022-09-04T21:03:01;96853.00;;;16.80
33267;BMP180;19638;49.080;11.896;2022-09-04T21:07:34;96864.00;;;16.80
33267;BMP180;19638;49.080;11.896;2022-09-04T21:11:42;96862.00;;;16.80
33267;BMP180;19638;49.080;11.896;2022-09-04T21:16:27;96866.00;;;16.80
33267;BMP180;19638;49.080;11.896;2022-09-04T21:20:50;96867.00;;;16.80
33267;BMP180;19638;49.080;11.896;2022-09-04T21:25:22;96875.00;;;16.70
33267;BMP180;19638;49.080;11.896;2022-09-04T21:29:45;96874.00;;;16.60
33267;BMP180;19638;49.080;11.896;2022-09-04T21:34:06;96884.00;;;16.60
33267;BMP180;19638;49.080;11.896;2022-09-04T21:38:50;96890.00;;;16.50
33267;BMP180;19638;49.080;11.896;2022-09-04T21:43:27;96893.00;;;16.50
33267;BMP180;19638;49.080;11.896;2022-09-04T21:47:48;96894.00;;;16.50
33267;BMP180;19638;49.080;11.896;2022-09-04T21:52:16;96892.00;;;16.50
33267;BMP180;19638;49.080;11.896;2022-09-04T21:56:53;96891.00;;;16.40
33267;BMP180;19638;49.080;11.896;2022-09-04T22:01:33;96898.00;;;16.40
33267;BMP180;19638;49.080;11.896;2022-09-04T22:06:35;96896.00;;;16.30
33267;BMP180;19638;49.080;11.896;2022-09-04T22:11:20;96897.00;;;16.20
33267;BMP180;19638;49.080;11.896;2022-09-04T22:16:02;96884.00;;;16.10
33267;BMP180;19638;49.080;11.896;2022-09-04T22:20:22;96881.00;;;16.00
33267;BMP180;19638;49.080;11.896;2022-09-04T22:25:16;96889.00;;;16.00
33267;BMP180;19638;49.080;11.896;2022-09-04T22:29:49;96894.00;;;15.90
33267;BMP180;19638;49.080;11.896;2022-09-04T22:34:14;96898.00;;;15.90
33267;BMP180;19638;49.080;11.896;2022-09-04T22:38:56;96902.00;;;15.90
33267;BMP180;19638;49.080;11.896;2022-09-04T22:43:09;96905.00;;;16.00
33267;BMP180;19638;49.080;11.896;2022-09-04T22:47:30;96902.00;;;15.90
33267;BMP180;19638;49.080;11.896;2022-09-04T22:52:16;96904.00;;;15.90
33267;BMP180;19638;49.080;11.896;2022-09-04T22:56:32;96899.00;;;15.90
33267;BMP180;19638;49.080;11.896;2022-09-04T23:00:58;96901.00;;;15.80
33267;BMP180;19638;49.080;11.896;2022-09-04T23:09:50;96905.00;;;15.80
33267;BMP180;19638;49.080;11.896;2022-09-04T23:14:37;96907.00;;;15.70
33267;BMP180;19638;49.080;11.896;2022-09-04T23:18:52;96898.00;;;15.70
33267;BMP180;19638;49.080;11.896;2022-09-04T23:23:47;96901.00;;;15.60
33267;BMP180;19638;49.080;11.896;2022-09-04T23:28:59;96902.00;;;15.60
33267;BMP180;19638;49.080;11.896;2022-09-04T23:38:17;96889.00;;;15.50
33267;BMP180;19638;49.080;11.896;2022-09-04T23:42:54;96885.00;;;15.40
33267;BMP180;19638;49.080;11.896;2022-09-04T23:47:37;96890.00;;;15.40
33267;BMP180;19638;49.080;11.896;2022-09-04T23:52:03;96885.00;;;15.40
33267;BMP180;19638;49.080;11.896;2022-09-04T23:56:18;96878.00;;;15.40
